ARJ1023 UNNT-UNBB
Flight info
| Callsign | ARJ1023 |
|---|---|
| Flight time | 0h 29m |
| Altitude | 19000 |
| Route | ALIRO1K ALIRO ALIRO2K |
| Aircraft | A320/M-SDE3FGHIRWY/LB1 |
Departure
| Time | 2026-04-27 11:36 |
|---|---|
| Airport | Novosibirsk Tolmachevo Airport (UNNT) |
Arrival
| Time | 2026-04-27 12:05 |
|---|---|
| Airport | Barnaul Gherman Titov International Airport (UNBB) |
| Time | Latitude | Longitude | Altitude | Speed | Heading |
|---|---|---|---|---|---|
| 2026-04-27 11:00 | 55.01067 | 82.66329 | 373 ft | 0 kts | 171° |
| 2026-04-27 11:25 | 55.01061 | 82.66331 | 373 ft | 6 kts | 171° |
| 2026-04-27 11:25 | 55.01027 | 82.66403 | 373 ft | 8 kts | 81° |
| 2026-04-27 11:25 | 55.01046 | 82.66492 | 373 ft | 7 kts | 69° |
| 2026-04-27 11:25 | 55.01065 | 82.66572 | 373 ft | 7 kts | 67° |
| 2026-04-27 11:26 | 55.01086 | 82.66662 | 373 ft | 14 kts | 69° |
| 2026-04-27 11:26 | 55.01096 | 82.66835 | 373 ft | 14 kts | 103° |
| 2026-04-27 11:26 | 55.01082 | 82.66987 | 373 ft | 12 kts | 81° |
| 2026-04-27 11:26 | 55.01095 | 82.67126 | 373 ft | 11 kts | 81° |
| 2026-04-27 11:27 | 55.01106 | 82.67252 | 373 ft | 10 kts | 84° |
| 2026-04-27 11:27 | 55.01109 | 82.67382 | 373 ft | 15 kts | 87° |
| 2026-04-27 11:27 | 55.01166 | 82.67505 | 373 ft | 13 kts | 31° |
| 2026-04-27 11:27 | 55.01241 | 82.67584 | 373 ft | 12 kts | 31° |
| 2026-04-27 11:28 | 55.01307 | 82.67654 | 373 ft | 11 kts | 31° |
| 2026-04-27 11:28 | 55.01354 | 82.67702 | 373 ft | 0 kts | 31° |
| 2026-04-27 11:32 | 55.01355 | 82.67704 | 373 ft | 3 kts | 31° |
| 2026-04-27 11:32 | 55.01426 | 82.67776 | 372 ft | 20 kts | 25° |
| 2026-04-27 11:32 | 55.01485 | 82.67697 | 372 ft | 5 kts | 257° |
| 2026-04-27 11:33 | 55.01485 | 82.67696 | 372 ft | 0 kts | 257° |
| 2026-04-27 11:35 | 55.01478 | 82.67641 | 371 ft | 17 kts | 259° |
| 2026-04-27 11:35 | 55.01425 | 82.67070 | 374 ft | 83 kts | 262° |
| 2026-04-27 11:35 | 55.01303 | 82.65704 | 372 ft | 142 kts | 261° |
| 2026-04-27 11:35 | 55.01123 | 82.63774 | 575 ft | 174 kts | 262° |
| 2026-04-27 11:36 | 55.00919 | 82.61670 | 1348 ft | 175 kts | 263° |
| 2026-04-27 11:36 | 55.00726 | 82.59543 | 2039 ft | 187 kts | 263° |
| 2026-04-27 11:36 | 55.00524 | 82.57239 | 2735 ft | 195 kts | 263° |
| 2026-04-27 11:36 | 55.00319 | 82.54886 | 3542 ft | 199 kts | 263° |
| 2026-04-27 11:37 | 55.00378 | 82.52397 | 4015 ft | 219 kts | 289° |
| 2026-04-27 11:37 | 55.00989 | 82.49865 | 4697 ft | 231 kts | 294° |
| 2026-04-27 11:37 | 55.01678 | 82.47300 | 5563 ft | 236 kts | 295° |
| 2026-04-27 11:37 | 55.02383 | 82.44705 | 6544 ft | 237 kts | 294° |
| 2026-04-27 11:38 | 55.03095 | 82.42065 | 7023 ft | 243 kts | 294° |
| 2026-04-27 11:38 | 55.03794 | 82.39390 | 7157 ft | 242 kts | 290° |
| 2026-04-27 11:38 | 55.04164 | 82.36538 | 7189 ft | 243 kts | 273° |
| 2026-04-27 11:38 | 55.04027 | 82.33516 | 7194 ft | 256 kts | 260° |
| 2026-04-27 11:39 | 55.03704 | 82.30454 | 7195 ft | 256 kts | 261° |
| 2026-04-27 11:39 | 55.03388 | 82.27391 | 7195 ft | 258 kts | 261° |
| 2026-04-27 11:39 | 55.03074 | 82.24311 | 7209 ft | 259 kts | 261° |
| 2026-04-27 11:39 | 55.02696 | 82.21229 | 7994 ft | 262 kts | 252° |
| 2026-04-27 11:40 | 55.01748 | 82.18498 | 8936 ft | 270 kts | 228° |
| 2026-04-27 11:40 | 55.00180 | 82.16726 | 9784 ft | 281 kts | 202° |
| 2026-04-27 11:40 | 54.98259 | 82.15823 | 10469 ft | 294 kts | 197° |
| 2026-04-27 11:40 | 54.96192 | 82.14927 | 10742 ft | 318 kts | 197° |
| 2026-04-27 11:41 | 54.93962 | 82.13965 | 10964 ft | 341 kts | 197° |
| 2026-04-27 11:41 | 54.91617 | 82.12955 | 11504 ft | 351 kts | 197° |
| 2026-04-27 11:41 | 54.89234 | 82.11931 | 12268 ft | 354 kts | 198° |
| 2026-04-27 11:41 | 54.86837 | 82.10898 | 13056 ft | 356 kts | 198° |
| 2026-04-27 11:42 | 54.84424 | 82.09854 | 13853 ft | 358 kts | 198° |
| 2026-04-27 11:42 | 54.81998 | 82.08800 | 14553 ft | 360 kts | 199° |
| 2026-04-27 11:42 | 54.79558 | 82.07736 | 15213 ft | 363 kts | 199° |
| 2026-04-27 11:42 | 54.77046 | 82.06968 | 15865 ft | 373 kts | 186° |
| 2026-04-27 11:43 | 54.74423 | 82.07458 | 16475 ft | 384 kts | 174° |
| 2026-04-27 11:43 | 54.71788 | 82.08313 | 17147 ft | 387 kts | 174° |
| 2026-04-27 11:43 | 54.69134 | 82.09199 | 17792 ft | 390 kts | 174° |
| 2026-04-27 11:43 | 54.66457 | 82.10107 | 18434 ft | 394 kts | 174° |
| 2026-04-27 11:44 | 54.63759 | 82.11021 | 18964 ft | 397 kts | 174° |
| 2026-04-27 11:44 | 54.61083 | 82.11926 | 19151 ft | 397 kts | 174° |
| 2026-04-27 11:44 | 54.58340 | 82.12846 | 19200 ft | 410 kts | 174° |
| 2026-04-27 11:44 | 54.55476 | 82.13787 | 19207 ft | 425 kts | 174° |
| 2026-04-27 11:45 | 54.52548 | 82.14743 | 19205 ft | 431 kts | 174° |
| 2026-04-27 11:45 | 54.50556 | 82.15396 | 19204 ft | 432 kts | 174° |
| 2026-04-27 11:45 | 54.46652 | 82.16683 | 19199 ft | 430 kts | 174° |
| 2026-04-27 11:45 | 54.43716 | 82.17656 | 19204 ft | 429 kts | 174° |
| 2026-04-27 11:46 | 54.40785 | 82.18621 | 19204 ft | 429 kts | 174° |
| 2026-04-27 11:46 | 54.37856 | 82.19577 | 19204 ft | 429 kts | 174° |
| 2026-04-27 11:46 | 54.34924 | 82.20531 | 19202 ft | 429 kts | 174° |
| 2026-04-27 11:46 | 54.31993 | 82.21487 | 19201 ft | 429 kts | 174° |
| 2026-04-27 11:47 | 54.29062 | 82.22446 | 19201 ft | 429 kts | 174° |
| 2026-04-27 11:47 | 54.26130 | 82.23403 | 19200 ft | 429 kts | 174° |
| 2026-04-27 11:47 | 54.23242 | 82.24344 | 19177 ft | 428 kts | 174° |
| 2026-04-27 11:47 | 54.20315 | 82.25294 | 19188 ft | 428 kts | 174° |
| 2026-04-27 11:48 | 54.17396 | 82.26236 | 19202 ft | 427 kts | 174° |
| 2026-04-27 11:48 | 54.14477 | 82.27180 | 19204 ft | 427 kts | 174° |
| 2026-04-27 11:48 | 54.11560 | 82.28122 | 19204 ft | 426 kts | 174° |
| 2026-04-27 11:48 | 54.08668 | 82.29336 | 19201 ft | 432 kts | 166° |
| 2026-04-27 11:49 | 54.05925 | 82.31513 | 19196 ft | 440 kts | 154° |
| 2026-04-27 11:49 | 54.03469 | 82.34682 | 19183 ft | 448 kts | 141° |
| 2026-04-27 11:49 | 54.01435 | 82.38748 | 19189 ft | 457 kts | 128° |
| 2026-04-27 11:49 | 53.99920 | 82.43532 | 19173 ft | 462 kts | 118° |
| 2026-04-27 11:50 | 53.98588 | 82.48509 | 19174 ft | 462 kts | 119° |
| 2026-04-27 11:50 | 53.97256 | 82.53455 | 19062 ft | 457 kts | 119° |
| 2026-04-27 11:50 | 53.95938 | 82.58321 | 18822 ft | 451 kts | 119° |
| 2026-04-27 11:50 | 53.94621 | 82.63143 | 18584 ft | 449 kts | 119° |
| 2026-04-27 11:51 | 53.93306 | 82.67929 | 18311 ft | 447 kts | 120° |
| 2026-04-27 11:51 | 53.92008 | 82.72640 | 18019 ft | 445 kts | 120° |
| 2026-04-27 11:51 | 53.89423 | 82.82038 | 16679 ft | 436 kts | 119° |
| 2026-04-27 11:52 | 53.88147 | 82.86669 | 16058 ft | 431 kts | 119° |
| 2026-04-27 11:52 | 53.86879 | 82.91248 | 15449 ft | 427 kts | 119° |
| 2026-04-27 11:52 | 53.85618 | 82.95787 | 14861 ft | 423 kts | 118° |
| 2026-04-27 11:52 | 53.84369 | 83.00281 | 14265 ft | 420 kts | 118° |
| 2026-04-27 11:53 | 53.83129 | 83.04740 | 13614 ft | 417 kts | 118° |
| 2026-04-27 11:53 | 53.81900 | 83.09149 | 12956 ft | 412 kts | 117° |
| 2026-04-27 11:53 | 53.80682 | 83.13512 | 12309 ft | 408 kts | 117° |
| 2026-04-27 11:53 | 53.79472 | 83.17838 | 11613 ft | 405 kts | 117° |
| 2026-04-27 11:54 | 53.78276 | 83.22088 | 11234 ft | 393 kts | 118° |
| 2026-04-27 11:54 | 53.76897 | 83.25917 | 11110 ft | 372 kts | 129° |
| 2026-04-27 11:54 | 53.75310 | 83.29250 | 10984 ft | 355 kts | 132° |
| 2026-04-27 11:54 | 53.73797 | 83.32369 | 10861 ft | 341 kts | 132° |
| 2026-04-27 11:55 | 53.72324 | 83.35408 | 10735 ft | 328 kts | 132° |
| 2026-04-27 11:55 | 53.70905 | 83.38334 | 10610 ft | 316 kts | 132° |
| 2026-04-27 11:55 | 53.69531 | 83.41164 | 10404 ft | 309 kts | 132° |
| 2026-04-27 11:55 | 53.68184 | 83.43933 | 10305 ft | 304 kts | 132° |
| 2026-04-27 11:56 | 53.66842 | 83.46692 | 10212 ft | 304 kts | 132° |
| 2026-04-27 11:56 | 53.65497 | 83.49448 | 9825 ft | 308 kts | 131° |
| 2026-04-27 11:56 | 53.64134 | 83.52240 | 9443 ft | 305 kts | 131° |
| 2026-04-27 11:56 | 53.62797 | 83.54980 | 9068 ft | 302 kts | 131° |
| 2026-04-27 11:57 | 53.61468 | 83.57697 | 8662 ft | 299 kts | 131° |
| 2026-04-27 11:57 | 53.60149 | 83.60387 | 8278 ft | 297 kts | 131° |
| 2026-04-27 11:57 | 53.58840 | 83.63057 | 7898 ft | 294 kts | 131° |
| 2026-04-27 11:57 | 53.57560 | 83.65662 | 7508 ft | 292 kts | 131° |
| 2026-04-27 11:58 | 53.56273 | 83.68281 | 7126 ft | 289 kts | 130° |
| 2026-04-27 11:58 | 53.54998 | 83.70880 | 6733 ft | 286 kts | 130° |
| 2026-04-27 11:58 | 53.53742 | 83.73437 | 6026 ft | 282 kts | 131° |
| 2026-04-27 11:58 | 53.52312 | 83.75669 | 5250 ft | 281 kts | 147° |
| 2026-04-27 11:59 | 53.50592 | 83.77136 | 4634 ft | 273 kts | 160° |
| 2026-04-27 11:59 | 53.48885 | 83.78304 | 4341 ft | 256 kts | 159° |
| 2026-04-27 11:59 | 53.47309 | 83.79396 | 4215 ft | 235 kts | 159° |
| 2026-04-27 11:59 | 53.45830 | 83.80421 | 4107 ft | 224 kts | 159° |
| 2026-04-27 12:00 | 53.44377 | 83.81038 | 3991 ft | 209 kts | 187° |
| 2026-04-27 12:00 | 53.43089 | 83.80224 | 3894 ft | 196 kts | 224° |
| 2026-04-27 12:00 | 53.42364 | 83.78377 | 3617 ft | 189 kts | 251° |
| 2026-04-27 12:00 | 53.41860 | 83.76278 | 3045 ft | 198 kts | 250° |
| 2026-04-27 12:01 | 53.41345 | 83.74225 | 2794 ft | 178 kts | 250° |
| 2026-04-27 12:01 | 53.40904 | 83.72453 | 2712 ft | 155 kts | 250° |
| 2026-04-27 12:01 | 53.40514 | 83.70878 | 2585 ft | 139 kts | 251° |
| 2026-04-27 12:01 | 53.40152 | 83.69408 | 2432 ft | 135 kts | 251° |
| 2026-04-27 12:02 | 53.39799 | 83.67981 | 2275 ft | 134 kts | 251° |
| 2026-04-27 12:02 | 53.39447 | 83.66555 | 2123 ft | 133 kts | 251° |
| 2026-04-27 12:02 | 53.39096 | 83.65136 | 1959 ft | 132 kts | 251° |
| 2026-04-27 12:02 | 53.38745 | 83.63722 | 1791 ft | 131 kts | 251° |
| 2026-04-27 12:03 | 53.38395 | 83.62308 | 1632 ft | 132 kts | 251° |
| 2026-04-27 12:03 | 53.38044 | 83.60893 | 1458 ft | 132 kts | 251° |
| 2026-04-27 12:03 | 53.37689 | 83.59472 | 1293 ft | 132 kts | 252° |
| 2026-04-27 12:03 | 53.37339 | 83.58050 | 1143 ft | 133 kts | 251° |
| 2026-04-27 12:04 | 53.36978 | 83.56624 | 957 ft | 134 kts | 251° |
| 2026-04-27 12:04 | 53.36635 | 83.55227 | 835 ft | 119 kts | 249° |
| 2026-04-27 12:04 | 53.36378 | 83.54191 | 833 ft | 75 kts | 246° |
| 2026-04-27 12:04 | 53.36201 | 83.53481 | 829 ft | 50 kts | 246° |
| 2026-04-27 12:05 | 53.36118 | 83.53255 | 832 ft | 10 kts | 198° |
| 2026-04-27 12:05 | 53.36015 | 83.53261 | 833 ft | 13 kts | 158° |
| 2026-04-27 12:05 | 53.36010 | 83.53263 | 833 ft | 0 kts | 158° |
| 2026-04-27 12:06 | 53.35987 | 83.53297 | 833 ft | 11 kts | 112° |
| 2026-04-27 12:07 | 53.36020 | 83.53492 | 833 ft | 20 kts | 67° |
| 2026-04-27 12:07 | 53.36077 | 83.53714 | 833 ft | 21 kts | 67° |
| 2026-04-27 12:07 | 53.36131 | 83.53933 | 833 ft | 20 kts | 67° |
| 2026-04-27 12:07 | 53.36182 | 83.54137 | 833 ft | 18 kts | 68° |
| 2026-04-27 12:08 | 53.36229 | 83.54328 | 833 ft | 17 kts | 68° |
| 2026-04-27 12:08 | 53.36246 | 83.54399 | 832 ft | 0 kts | 68° |
| 2026-04-27 12:09 | 53.36254 | 83.54432 | 830 ft | 15 kts | 68° |
| 2026-04-27 12:09 | 53.36295 | 83.54600 | 833 ft | 13 kts | 68° |
| 2026-04-27 12:09 | 53.36307 | 83.54706 | 833 ft | 7 kts | 127° |
| 2026-04-27 12:09 | 53.36269 | 83.54718 | 833 ft | 5 kts | 200° |
| 2026-04-27 12:10 | 53.36251 | 83.54680 | 833 ft | 4 kts | 243° |
| 2026-04-27 12:10 | 53.36240 | 83.54637 | 833 ft | 4 kts | 246° |
| 2026-04-27 12:10 | 53.36237 | 83.54627 | 833 ft | 0 kts | 246° |
| 2026-04-27 12:11 | 53.36237 | 83.54626 | 833 ft | 0 kts | 246° |
| 2026-04-27 12:11 | 53.36237 | 83.54625 | 833 ft | 0 kts | 246° |